sensor_id;sensor_type;location;lat;lon;timestamp;P1;durP1;ratioP1;P2;durP2;ratioP2
62616;SDS011;62539;51.190;6.808;2023-12-20T00:00:58;9.75;;;5.53;;
62616;SDS011;62539;51.190;6.808;2023-12-20T00:03:24;17.80;;;5.30;;
62616;SDS011;62539;51.190;6.808;2023-12-20T00:05:49;8.77;;;5.72;;
62616;SDS011;62539;51.190;6.808;2023-12-20T00:08:15;9.48;;;5.20;;
62616;SDS011;62539;51.190;6.808;2023-12-20T00:10:41;9.30;;;5.70;;
62616;SDS011;62539;51.190;6.808;2023-12-20T00:13:08;8.55;;;5.60;;
62616;SDS011;62539;51.190;6.808;2023-12-20T00:15:34;9.23;;;5.30;;
62616;SDS011;62539;51.190;6.808;2023-12-20T00:17:59;9.50;;;5.13;;
62616;SDS011;62539;51.190;6.808;2023-12-20T00:20:25;10.25;;;5.10;;
62616;SDS011;62539;51.190;6.808;2023-12-20T00:22:52;8.80;;;5.85;;
62616;SDS011;62539;51.190;6.808;2023-12-20T00:25:21;15.15;;;5.13;;
62616;SDS011;62539;51.190;6.808;2023-12-20T00:27:46;12.05;;;5.55;;
62616;SDS011;62539;51.190;6.808;2023-12-20T00:30:11;8.73;;;4.78;;
62616;SDS011;62539;51.190;6.808;2023-12-20T00:32:37;8.65;;;5.00;;
62616;SDS011;62539;51.190;6.808;2023-12-20T00:35:03;6.15;;;4.97;;
62616;SDS011;62539;51.190;6.808;2023-12-20T00:37:29;8.05;;;4.80;;
62616;SDS011;62539;51.190;6.808;2023-12-20T00:39:54;7.85;;;4.43;;
62616;SDS011;62539;51.190;6.808;2023-12-20T00:42:20;11.73;;;4.70;;
62616;SDS011;62539;51.190;6.808;2023-12-20T00:44:45;6.25;;;4.78;;
62616;SDS011;62539;51.190;6.808;2023-12-20T00:47:11;7.30;;;4.78;;
62616;SDS011;62539;51.190;6.808;2023-12-20T00:49:36;6.63;;;4.53;;
62616;SDS011;62539;51.190;6.808;2023-12-20T00:52:01;8.65;;;5.05;;
62616;SDS011;62539;51.190;6.808;2023-12-20T00:54:27;7.18;;;4.40;;
62616;SDS011;62539;51.190;6.808;2023-12-20T00:56:53;11.25;;;5.18;;
62616;SDS011;62539;51.190;6.808;2023-12-20T00:59:19;7.97;;;4.75;;
62616;SDS011;62539;51.190;6.808;2023-12-20T01:01:44;9.18;;;4.53;;
62616;SDS011;62539;51.190;6.808;2023-12-20T01:04:10;10.07;;;4.88;;
62616;SDS011;62539;51.190;6.808;2023-12-20T01:06:35;8.43;;;5.00;;
62616;SDS011;62539;51.190;6.808;2023-12-20T01:09:01;6.60;;;4.88;;
62616;SDS011;62539;51.190;6.808;2023-12-20T01:11:26;6.07;;;4.40;;
62616;SDS011;62539;51.190;6.808;2023-12-20T01:13:51;6.60;;;4.22;;
62616;SDS011;62539;51.190;6.808;2023-12-20T01:16:17;7.68;;;4.65;;
62616;SDS011;62539;51.190;6.808;2023-12-20T01:18:42;6.38;;;4.45;;
62616;SDS011;62539;51.190;6.808;2023-12-20T01:21:07;8.57;;;4.55;;
62616;SDS011;62539;51.190;6.808;2023-12-20T01:23:33;7.45;;;4.75;;
62616;SDS011;62539;51.190;6.808;2023-12-20T01:25:58;8.45;;;4.28;;
62616;SDS011;62539;51.190;6.808;2023-12-20T01:28:27;6.90;;;4.57;;
62616;SDS011;62539;51.190;6.808;2023-12-20T01:30:53;5.68;;;4.13;;
62616;SDS011;62539;51.190;6.808;2023-12-20T01:33:19;6.65;;;4.63;;
62616;SDS011;62539;51.190;6.808;2023-12-20T01:35:44;5.50;;;4.45;;
62616;SDS011;62539;51.190;6.808;2023-12-20T01:38:09;5.88;;;4.53;;
62616;SDS011;62539;51.190;6.808;2023-12-20T01:40:35;8.45;;;4.80;;
62616;SDS011;62539;51.190;6.808;2023-12-20T01:43:01;6.18;;;3.92;;
62616;SDS011;62539;51.190;6.808;2023-12-20T01:45:31;9.23;;;4.70;;
62616;SDS011;62539;51.190;6.808;2023-12-20T01:47:57;8.18;;;4.50;;
62616;SDS011;62539;51.190;6.808;2023-12-20T01:50:23;5.72;;;4.40;;
62616;SDS011;62539;51.190;6.808;2023-12-20T01:52:49;5.22;;;3.85;;
62616;SDS011;62539;51.190;6.808;2023-12-20T01:55:17;7.03;;;3.95;;
62616;SDS011;62539;51.190;6.808;2023-12-20T01:57:45;7.30;;;4.45;;
62616;SDS011;62539;51.190;6.808;2023-12-20T02:00:12;7.10;;;4.38;;
62616;SDS011;62539;51.190;6.808;2023-12-20T02:02:40;6.03;;;4.10;;
62616;SDS011;62539;51.190;6.808;2023-12-20T02:05:06;6.57;;;3.72;;
62616;SDS011;62539;51.190;6.808;2023-12-20T02:07:33;5.85;;;4.13;;
62616;SDS011;62539;51.190;6.808;2023-12-20T02:10:00;5.70;;;3.92;;
62616;SDS011;62539;51.190;6.808;2023-12-20T02:12:29;8.02;;;4.18;;
62616;SDS011;62539;51.190;6.808;2023-12-20T02:14:55;3.95;;;3.53;;
62616;SDS011;62539;51.190;6.808;2023-12-20T02:17:20;5.75;;;4.03;;
62616;SDS011;62539;51.190;6.808;2023-12-20T02:19:48;6.72;;;4.03;;
62616;SDS011;62539;51.190;6.808;2023-12-20T02:22:14;4.22;;;3.80;;
62616;SDS011;62539;51.190;6.808;2023-12-20T02:24:39;5.00;;;3.75;;
62616;SDS011;62539;51.190;6.808;2023-12-20T02:27:05;9.25;;;4.07;;
62616;SDS011;62539;51.190;6.808;2023-12-20T02:29:32;4.80;;;3.83;;
62616;SDS011;62539;51.190;6.808;2023-12-20T02:31:59;6.15;;;3.60;;
62616;SDS011;62539;51.190;6.808;2023-12-20T02:34:24;7.05;;;4.10;;
62616;SDS011;62539;51.190;6.808;2023-12-20T02:36:50;5.75;;;3.60;;
62616;SDS011;62539;51.190;6.808;2023-12-20T02:39:15;5.05;;;3.55;;
62616;SDS011;62539;51.190;6.808;2023-12-20T02:41:41;4.97;;;3.75;;
62616;SDS011;62539;51.190;6.808;2023-12-20T02:44:07;6.82;;;3.80;;
62616;SDS011;62539;51.190;6.808;2023-12-20T02:46:32;5.03;;;3.65;;
62616;SDS011;62539;51.190;6.808;2023-12-20T02:48:58;5.95;;;3.38;;
62616;SDS011;62539;51.190;6.808;2023-12-20T02:51:23;6.38;;;4.00;;
62616;SDS011;62539;51.190;6.808;2023-12-20T02:53:48;7.32;;;3.42;;
62616;SDS011;62539;51.190;6.808;2023-12-20T02:56:14;6.63;;;4.15;;
62616;SDS011;62539;51.190;6.808;2023-12-20T02:58:39;4.57;;;3.35;;
62616;SDS011;62539;51.190;6.808;2023-12-20T03:01:05;5.55;;;3.42;;
62616;SDS011;62539;51.190;6.808;2023-12-20T03:03:31;4.47;;;3.50;;
62616;SDS011;62539;51.190;6.808;2023-12-20T03:05:57;4.55;;;3.58;;
62616;SDS011;62539;51.190;6.808;2023-12-20T03:08:22;3.83;;;3.08;;
62616;SDS011;62539;51.190;6.808;2023-12-20T03:10:48;5.55;;;3.05;;
62616;SDS011;62539;51.190;6.808;2023-12-20T03:13:13;3.92;;;3.08;;
62616;SDS011;62539;51.190;6.808;2023-12-20T03:15:39;5.45;;;3.30;;
62616;SDS011;62539;51.190;6.808;2023-12-20T03:18:05;6.13;;;3.75;;
62616;SDS011;62539;51.190;6.808;2023-12-20T03:20:31;7.32;;;3.63;;
62616;SDS011;62539;51.190;6.808;2023-12-20T03:22:59;4.53;;;3.17;;
62616;SDS011;62539;51.190;6.808;2023-12-20T03:25:25;5.68;;;3.45;;
62616;SDS011;62539;51.190;6.808;2023-12-20T03:27:51;5.05;;;3.33;;
62616;SDS011;62539;51.190;6.808;2023-12-20T03:30:17;4.88;;;3.20;;
62616;SDS011;62539;51.190;6.808;2023-12-20T03:32:43;4.70;;;3.25;;
62616;SDS011;62539;51.190;6.808;2023-12-20T03:35:09;7.32;;;3.35;;
62616;SDS011;62539;51.190;6.808;2023-12-20T03:37:34;5.22;;;3.50;;
62616;SDS011;62539;51.190;6.808;2023-12-20T03:40:00;6.20;;;3.42;;
62616;SDS011;62539;51.190;6.808;2023-12-20T03:42:26;3.53;;;3.00;;
62616;SDS011;62539;51.190;6.808;2023-12-20T03:44:51;3.97;;;3.00;;
62616;SDS011;62539;51.190;6.808;2023-12-20T03:47:16;4.68;;;2.97;;
62616;SDS011;62539;51.190;6.808;2023-12-20T03:49:42;5.30;;;3.17;;
62616;SDS011;62539;51.190;6.808;2023-12-20T03:52:07;5.65;;;3.05;;
62616;SDS011;62539;51.190;6.808;2023-12-20T03:54:34;6.60;;;3.35;;
62616;SDS011;62539;51.190;6.808;2023-12-20T03:57:00;5.95;;;3.65;;
62616;SDS011;62539;51.190;6.808;2023-12-20T03:59:26;3.58;;;2.75;;
62616;SDS011;62539;51.190;6.808;2023-12-20T04:01:52;4.13;;;3.05;;
62616;SDS011;62539;51.190;6.808;2023-12-20T04:04:17;3.83;;;3.08;;
62616;SDS011;62539;51.190;6.808;2023-12-20T04:06:43;3.78;;;2.97;;
62616;SDS011;62539;51.190;6.808;2023-12-20T04:09:08;6.07;;;3.33;;
62616;SDS011;62539;51.190;6.808;2023-12-20T04:11:34;2.95;;;2.33;;
62616;SDS011;62539;51.190;6.808;2023-12-20T04:14:00;7.55;;;2.83;;
62616;SDS011;62539;51.190;6.808;2023-12-20T04:16:25;3.58;;;2.83;;
62616;SDS011;62539;51.190;6.808;2023-12-20T04:18:51;3.72;;;3.13;;
62616;SDS011;62539;51.190;6.808;2023-12-20T04:21:17;3.25;;;2.90;;
62616;SDS011;62539;51.190;6.808;2023-12-20T04:23:43;3.42;;;2.67;;
62616;SDS011;62539;51.190;6.808;2023-12-20T04:26:08;3.83;;;2.60;;
62616;SDS011;62539;51.190;6.808;2023-12-20T04:28:35;3.05;;;2.60;;
62616;SDS011;62539;51.190;6.808;2023-12-20T04:31:00;3.03;;;2.72;;
62616;SDS011;62539;51.190;6.808;2023-12-20T04:33:26;4.40;;;2.78;;
62616;SDS011;62539;51.190;6.808;2023-12-20T04:35:51;6.45;;;2.80;;
62616;SDS011;62539;51.190;6.808;2023-12-20T04:38:16;5.32;;;2.95;;
62616;SDS011;62539;51.190;6.808;2023-12-20T04:40:42;5.45;;;2.78;;
62616;SDS011;62539;51.190;6.808;2023-12-20T04:43:07;4.93;;;2.50;;
62616;SDS011;62539;51.190;6.808;2023-12-20T04:45:33;3.60;;;2.40;;
62616;SDS011;62539;51.190;6.808;2023-12-20T04:47:59;5.05;;;2.90;;
62616;SDS011;62539;51.190;6.808;2023-12-20T04:50:25;4.05;;;2.50;;
62616;SDS011;62539;51.190;6.808;2023-12-20T04:52:51;3.75;;;2.65;;
62616;SDS011;62539;51.190;6.808;2023-12-20T04:55:16;3.15;;;2.70;;
62616;SDS011;62539;51.190;6.808;2023-12-20T04:57:42;5.43;;;2.80;;
62616;SDS011;62539;51.190;6.808;2023-12-20T05:00:08;4.97;;;2.92;;
62616;SDS011;62539;51.190;6.808;2023-12-20T05:02:34;4.78;;;2.70;;
62616;SDS011;62539;51.190;6.808;2023-12-20T05:05:01;4.20;;;2.50;;
62616;SDS011;62539;51.190;6.808;2023-12-20T05:07:26;4.05;;;2.65;;
62616;SDS011;62539;51.190;6.808;2023-12-20T05:09:52;3.33;;;2.45;;
62616;SDS011;62539;51.190;6.808;2023-12-20T05:12:17;3.50;;;2.42;;
62616;SDS011;62539;51.190;6.808;2023-12-20T05:14:42;2.95;;;2.42;;
62616;SDS011;62539;51.190;6.808;2023-12-20T05:17:08;3.83;;;2.63;;
62616;SDS011;62539;51.190;6.808;2023-12-20T05:19:33;3.42;;;2.33;;
62616;SDS011;62539;51.190;6.808;2023-12-20T05:22:01;3.55;;;2.25;;
62616;SDS011;62539;51.190;6.808;2023-12-20T05:24:27;3.13;;;2.40;;
62616;SDS011;62539;51.190;6.808;2023-12-20T05:26:53;4.72;;;2.38;;
62616;SDS011;62539;51.190;6.808;2023-12-20T05:29:19;3.20;;;2.38;;
62616;SDS011;62539;51.190;6.808;2023-12-20T05:31:44;2.97;;;2.38;;
62616;SDS011;62539;51.190;6.808;2023-12-20T05:34:10;4.80;;;2.20;;
62616;SDS011;62539;51.190;6.808;2023-12-20T05:36:35;3.83;;;2.25;;
62616;SDS011;62539;51.190;6.808;2023-12-20T05:39:02;4.38;;;2.78;;
62616;SDS011;62539;51.190;6.808;2023-12-20T05:41:29;4.22;;;2.13;;
62616;SDS011;62539;51.190;6.808;2023-12-20T05:43:55;4.90;;;2.33;;
62616;SDS011;62539;51.190;6.808;2023-12-20T05:46:20;4.35;;;2.38;;
62616;SDS011;62539;51.190;6.808;2023-12-20T05:48:46;3.45;;;2.22;;
62616;SDS011;62539;51.190;6.808;2023-12-20T05:51:12;4.85;;;2.75;;
62616;SDS011;62539;51.190;6.808;2023-12-20T05:53:38;2.70;;;2.28;;
62616;SDS011;62539;51.190;6.808;2023-12-20T05:56:04;2.70;;;2.05;;
62616;SDS011;62539;51.190;6.808;2023-12-20T05:58:30;2.75;;;2.00;;
62616;SDS011;62539;51.190;6.808;2023-12-20T06:00:55;3.38;;;2.08;;
62616;SDS011;62539;51.190;6.808;2023-12-20T06:03:20;2.85;;;2.17;;
62616;SDS011;62539;51.190;6.808;2023-12-20T06:05:46;3.03;;;2.28;;
62616;SDS011;62539;51.190;6.808;2023-12-20T06:08:11;6.35;;;2.40;;
62616;SDS011;62539;51.190;6.808;2023-12-20T06:10:37;3.00;;;2.08;;
62616;SDS011;62539;51.190;6.808;2023-12-20T06:13:02;2.92;;;2.22;;
62616;SDS011;62539;51.190;6.808;2023-12-20T06:15:29;2.72;;;2.00;;
62616;SDS011;62539;51.190;6.808;2023-12-20T06:17:55;2.88;;;2.30;;
62616;SDS011;62539;51.190;6.808;2023-12-20T06:20:20;2.47;;;1.90;;
62616;SDS011;62539;51.190;6.808;2023-12-20T06:22:46;2.35;;;2.10;;
62616;SDS011;62539;51.190;6.808;2023-12-20T06:25:11;2.78;;;1.98;;
62616;SDS011;62539;51.190;6.808;2023-12-20T06:27:37;4.47;;;1.90;;
62616;SDS011;62539;51.190;6.808;2023-12-20T06:30:02;2.28;;;1.83;;
62616;SDS011;62539;51.190;6.808;2023-12-20T06:32:28;3.38;;;2.25;;
62616;SDS011;62539;51.190;6.808;2023-12-20T06:34:54;4.18;;;2.20;;
62616;SDS011;62539;51.190;6.808;2023-12-20T06:37:19;2.75;;;1.88;;
62616;SDS011;62539;51.190;6.808;2023-12-20T06:39:45;5.30;;;2.10;;
62616;SDS011;62539;51.190;6.808;2023-12-20T06:42:11;3.95;;;2.20;;
62616;SDS011;62539;51.190;6.808;2023-12-20T06:44:37;7.25;;;2.38;;
62616;SDS011;62539;51.190;6.808;2023-12-20T06:47:03;5.57;;;2.30;;
62616;SDS011;62539;51.190;6.808;2023-12-20T06:49:29;3.67;;;2.42;;
62616;SDS011;62539;51.190;6.808;2023-12-20T06:51:55;6.00;;;2.28;;
62616;SDS011;62539;51.190;6.808;2023-12-20T06:54:20;4.82;;;2.55;;
62616;SDS011;62539;51.190;6.808;2023-12-20T06:56:46;7.20;;;2.53;;
62616;SDS011;62539;51.190;6.808;2023-12-20T06:59:11;3.65;;;2.35;;
62616;SDS011;62539;51.190;6.808;2023-12-20T07:01:36;8.63;;;2.55;;
62616;SDS011;62539;51.190;6.808;2023-12-20T07:04:02;4.65;;;2.13;;
62616;SDS011;62539;51.190;6.808;2023-12-20T07:06:28;11.00;;;2.72;;
62616;SDS011;62539;51.190;6.808;2023-12-20T07:08:54;4.47;;;2.70;;
62616;SDS011;62539;51.190;6.808;2023-12-20T07:11:19;11.05;;;2.72;;
62616;SDS011;62539;51.190;6.808;2023-12-20T07:13:45;5.43;;;2.78;;
62616;SDS011;62539;51.190;6.808;2023-12-20T07:16:10;8.23;;;3.10;;
62616;SDS011;62539;51.190;6.808;2023-12-20T07:18:35;7.57;;;2.55;;
62616;SDS011;62539;51.190;6.808;2023-12-20T07:21:01;11.73;;;2.72;;
62616;SDS011;62539;51.190;6.808;2023-12-20T07:23:26;6.35;;;3.17;;
62616;SDS011;62539;51.190;6.808;2023-12-20T07:25:52;6.60;;;2.45;;
62616;SDS011;62539;51.190;6.808;2023-12-20T07:28:17;4.25;;;2.55;;
62616;SDS011;62539;51.190;6.808;2023-12-20T07:30:43;5.05;;;2.33;;
62616;SDS011;62539;51.190;6.808;2023-12-20T07:33:08;4.53;;;2.63;;
62616;SDS011;62539;51.190;6.808;2023-12-20T07:35:34;4.05;;;2.63;;
62616;SDS011;62539;51.190;6.808;2023-12-20T07:38:00;6.03;;;2.78;;
62616;SDS011;62539;51.190;6.808;2023-12-20T07:40:25;5.80;;;2.42;;
62616;SDS011;62539;51.190;6.808;2023-12-20T07:42:51;7.47;;;2.65;;
62616;SDS011;62539;51.190;6.808;2023-12-20T07:45:16;4.90;;;2.15;;
62616;SDS011;62539;51.190;6.808;2023-12-20T07:47:41;5.90;;;2.50;;
62616;SDS011;62539;51.190;6.808;2023-12-20T07:50:07;7.30;;;2.40;;
62616;SDS011;62539;51.190;6.808;2023-12-20T07:52:32;7.18;;;2.05;;
62616;SDS011;62539;51.190;6.808;2023-12-20T07:54:58;16.95;;;2.80;;
62616;SDS011;62539;51.190;6.808;2023-12-20T07:57:23;5.50;;;2.45;;
62616;SDS011;62539;51.190;6.808;2023-12-20T07:59:49;5.57;;;2.75;;
62616;SDS011;62539;51.190;6.808;2023-12-20T08:02:14;6.13;;;2.58;;
62616;SDS011;62539;51.190;6.808;2023-12-20T08:04:40;8.45;;;2.60;;
62616;SDS011;62539;51.190;6.808;2023-12-20T08:07:05;9.88;;;2.53;;
62616;SDS011;62539;51.190;6.808;2023-12-20T08:09:31;8.55;;;2.33;;
62616;SDS011;62539;51.190;6.808;2023-12-20T08:11:58;10.40;;;2.40;;
62616;SDS011;62539;51.190;6.808;2023-12-20T08:14:24;7.45;;;2.35;;
62616;SDS011;62539;51.190;6.808;2023-12-20T08:16:50;12.25;;;2.67;;
62616;SDS011;62539;51.190;6.808;2023-12-20T08:19:16;10.73;;;2.50;;
62616;SDS011;62539;51.190;6.808;2023-12-20T08:21:42;9.85;;;2.70;;
62616;SDS011;62539;51.190;6.808;2023-12-20T08:24:08;10.27;;;2.65;;
62616;SDS011;62539;51.190;6.808;2023-12-20T08:26:33;11.25;;;2.17;;
62616;SDS011;62539;51.190;6.808;2023-12-20T08:28:59;10.73;;;2.38;;
62616;SDS011;62539;51.190;6.808;2023-12-20T08:31:24;11.23;;;2.47;;
62616;SDS011;62539;51.190;6.808;2023-12-20T08:33:51;9.00;;;2.13;;
62616;SDS011;62539;51.190;6.808;2023-12-20T08:36:18;10.30;;;2.25;;
62616;SDS011;62539;51.190;6.808;2023-12-20T08:38:46;13.15;;;2.10;;
62616;SDS011;62539;51.190;6.808;2023-12-20T08:41:12;11.32;;;2.42;;
62616;SDS011;62539;51.190;6.808;2023-12-20T08:43:37;7.10;;;2.15;;
62616;SDS011;62539;51.190;6.808;2023-12-20T08:46:05;11.20;;;2.45;;
62616;SDS011;62539;51.190;6.808;2023-12-20T08:48:30;7.55;;;2.50;;
62616;SDS011;62539;51.190;6.808;2023-12-20T08:50:56;7.07;;;1.92;;
62616;SDS011;62539;51.190;6.808;2023-12-20T08:53:21;4.00;;;1.67;;
62616;SDS011;62539;51.190;6.808;2023-12-20T08:55:47;9.68;;;3.13;;
62616;SDS011;62539;51.190;6.808;2023-12-20T08:58:12;10.63;;;2.03;;
62616;SDS011;62539;51.190;6.808;2023-12-20T09:00:38;4.65;;;1.60;;
62616;SDS011;62539;51.190;6.808;2023-12-20T09:03:04;8.18;;;2.25;;
62616;SDS011;62539;51.190;6.808;2023-12-20T09:05:30;15.75;;;2.10;;
62616;SDS011;62539;51.190;6.808;2023-12-20T09:07:55;4.60;;;1.98;;
62616;SDS011;62539;51.190;6.808;2023-12-20T09:10:21;11.10;;;2.53;;
62616;SDS011;62539;51.190;6.808;2023-12-20T09:12:49;15.32;;;2.03;;
62616;SDS011;62539;51.190;6.808;2023-12-20T09:15:16;4.93;;;1.83;;
62616;SDS011;62539;51.190;6.808;2023-12-20T09:17:44;5.20;;;1.70;;
62616;SDS011;62539;51.190;6.808;2023-12-20T09:20:09;7.72;;;1.45;;
62616;SDS011;62539;51.190;6.808;2023-12-20T09:22:35;10.68;;;1.80;;
62616;SDS011;62539;51.190;6.808;2023-12-20T09:25:00;6.13;;;1.90;;
62616;SDS011;62539;51.190;6.808;2023-12-20T09:27:29;10.43;;;2.03;;
62616;SDS011;62539;51.190;6.808;2023-12-20T09:29:54;7.18;;;1.60;;
62616;SDS011;62539;51.190;6.808;2023-12-20T09:32:19;8.70;;;2.03;;
62616;SDS011;62539;51.190;6.808;2023-12-20T09:34:48;9.00;;;1.52;;
62616;SDS011;62539;51.190;6.808;2023-12-20T09:37:13;5.28;;;1.65;;
62616;SDS011;62539;51.190;6.808;2023-12-20T09:39:39;4.63;;;1.73;;
62616;SDS011;62539;51.190;6.808;2023-12-20T09:42:04;7.28;;;1.48;;
62616;SDS011;62539;51.190;6.808;2023-12-20T09:44:32;10.98;;;1.85;;
62616;SDS011;62539;51.190;6.808;2023-12-20T09:47:02;5.18;;;1.55;;
62616;SDS011;62539;51.190;6.808;2023-12-20T09:49:29;5.65;;;1.50;;
62616;SDS011;62539;51.190;6.808;2023-12-20T09:51:56;6.43;;;1.60;;
62616;SDS011;62539;51.190;6.808;2023-12-20T09:54:22;4.05;;;1.85;;
62616;SDS011;62539;51.190;6.808;2023-12-20T09:56:48;4.60;;;1.52;;
62616;SDS011;62539;51.190;6.808;2023-12-20T09:59:14;4.68;;;1.90;;
62616;SDS011;62539;51.190;6.808;2023-12-20T10:01:40;8.68;;;2.08;;
62616;SDS011;62539;51.190;6.808;2023-12-20T10:04:10;28.70;;;2.20;;
62616;SDS011;62539;51.190;6.808;2023-12-20T10:06:42;15.05;;;2.22;;
62616;SDS011;62539;51.190;6.808;2023-12-20T10:09:08;20.05;;;1.98;;
62616;SDS011;62539;51.190;6.808;2023-12-20T10:11:35;17.25;;;2.25;;
62616;SDS011;62539;51.190;6.808;2023-12-20T10:14:02;9.43;;;2.20;;
62616;SDS011;62539;51.190;6.808;2023-12-20T10:16:29;10.18;;;1.77;;
62616;SDS011;62539;51.190;6.808;2023-12-20T10:18:55;14.43;;;2.03;;
62616;SDS011;62539;51.190;6.808;2023-12-20T10:21:22;17.45;;;2.10;;
62616;SDS011;62539;51.190;6.808;2023-12-20T10:23:51;16.38;;;2.00;;
62616;SDS011;62539;51.190;6.808;2023-12-20T10:26:24;17.50;;;2.40;;
62616;SDS011;62539;51.190;6.808;2023-12-20T10:28:52;15.70;;;1.98;;
62616;SDS011;62539;51.190;6.808;2023-12-20T10:31:29;12.07;;;2.30;;
62616;SDS011;62539;51.190;6.808;2023-12-20T10:33:57;20.50;;;1.70;;
62616;SDS011;62539;51.190;6.808;2023-12-20T10:36:25;14.88;;;2.13;;
62616;SDS011;62539;51.190;6.808;2023-12-20T10:38:53;17.85;;;2.28;;
62616;SDS011;62539;51.190;6.808;2023-12-20T10:41:23;8.07;;;1.85;;
62616;SDS011;62539;51.190;6.808;2023-12-20T10:43:53;15.77;;;1.92;;
62616;SDS011;62539;51.190;6.808;2023-12-20T10:46:23;10.25;;;2.08;;
62616;SDS011;62539;51.190;6.808;2023-12-20T10:48:51;16.63;;;1.92;;
62616;SDS011;62539;51.190;6.808;2023-12-20T10:51:24;13.32;;;1.95;;
62616;SDS011;62539;51.190;6.808;2023-12-20T10:53:54;9.80;;;2.42;;
62616;SDS011;62539;51.190;6.808;2023-12-20T10:56:21;10.43;;;2.08;;
62616;SDS011;62539;51.190;6.808;2023-12-20T10:58:48;12.48;;;2.92;;
62616;SDS011;62539;51.190;6.808;2023-12-20T11:01:18;9.95;;;2.92;;
62616;SDS011;62539;51.190;6.808;2023-12-20T11:03:48;15.35;;;4.70;;
62616;SDS011;62539;51.190;6.808;2023-12-20T11:06:19;9.32;;;3.40;;
62616;SDS011;62539;51.190;6.808;2023-12-20T11:08:58;17.27;;;4.10;;
62616;SDS011;62539;51.190;6.808;2023-12-20T11:11:51;8.77;;;3.67;;
62616;SDS011;62539;51.190;6.808;2023-12-20T11:14:42;17.02;;;3.78;;
62616;SDS011;62539;51.190;6.808;2023-12-20T11:17:12;7.97;;;3.45;;
62616;SDS011;62539;51.190;6.808;2023-12-20T11:22:22;7.95;;;3.03;;
62616;SDS011;62539;51.190;6.808;2023-12-20T11:24:54;8.40;;;3.22;;
62616;SDS011;62539;51.190;6.808;2023-12-20T11:27:29;15.10;;;3.60;;
62616;SDS011;62539;51.190;6.808;2023-12-20T11:29:56;7.93;;;2.90;;
62616;SDS011;62539;51.190;6.808;2023-12-20T11:34:58;9.98;;;2.80;;
62616;SDS011;62539;51.190;6.808;2023-12-20T11:37:44;9.52;;;2.95;;
62616;SDS011;62539;51.190;6.808;2023-12-20T11:40:15;7.57;;;2.92;;
62616;SDS011;62539;51.190;6.808;2023-12-20T11:42:43;9.07;;;3.15;;
62616;SDS011;62539;51.190;6.808;2023-12-20T11:45:14;10.57;;;2.75;;
62616;SDS011;62539;51.190;6.808;2023-12-20T11:47:45;7.15;;;2.97;;
62616;SDS011;62539;51.190;6.808;2023-12-20T11:50:14;6.63;;;2.28;;
62616;SDS011;62539;51.190;6.808;2023-12-20T11:52:41;5.22;;;2.10;;
62616;SDS011;62539;51.190;6.808;2023-12-20T11:55:06;3.30;;;1.98;;
62616;SDS011;62539;51.190;6.808;2023-12-20T11:57:32;10.98;;;2.20;;
62616;SDS011;62539;51.190;6.808;2023-12-20T11:59:58;6.28;;;2.17;;
62616;SDS011;62539;51.190;6.808;2023-12-20T12:02:24;5.93;;;1.92;;
62616;SDS011;62539;51.190;6.808;2023-12-20T12:04:49;5.18;;;1.90;;
62616;SDS011;62539;51.190;6.808;2023-12-20T12:07:18;5.15;;;2.15;;
62616;SDS011;62539;51.190;6.808;2023-12-20T12:09:44;13.35;;;2.20;;
62616;SDS011;62539;51.190;6.808;2023-12-20T12:12:10;6.40;;;1.90;;
62616;SDS011;62539;51.190;6.808;2023-12-20T12:14:38;6.95;;;2.10;;
62616;SDS011;62539;51.190;6.808;2023-12-20T12:17:09;6.35;;;1.77;;
62616;SDS011;62539;51.190;6.808;2023-12-20T12:19:36;6.82;;;2.25;;
62616;SDS011;62539;51.190;6.808;2023-12-20T12:22:08;6.45;;;2.10;;
62616;SDS011;62539;51.190;6.808;2023-12-20T12:24:42;8.10;;;1.90;;
62616;SDS011;62539;51.190;6.808;2023-12-20T12:27:09;9.13;;;2.17;;
62616;SDS011;62539;51.190;6.808;2023-12-20T12:29:35;4.22;;;1.63;;
62616;SDS011;62539;51.190;6.808;2023-12-20T12:32:08;6.30;;;1.95;;
62616;SDS011;62539;51.190;6.808;2023-12-20T12:34:34;6.13;;;1.83;;
62616;SDS011;62539;51.190;6.808;2023-12-20T12:37:04;4.63;;;2.00;;
62616;SDS011;62539;51.190;6.808;2023-12-20T12:39:30;6.95;;;1.83;;
62616;SDS011;62539;51.190;6.808;2023-12-20T12:41:55;7.80;;;1.90;;
62616;SDS011;62539;51.190;6.808;2023-12-20T12:44:22;5.53;;;1.60;;
62616;SDS011;62539;51.190;6.808;2023-12-20T12:46:52;6.63;;;1.73;;
62616;SDS011;62539;51.190;6.808;2023-12-20T12:49:19;3.35;;;1.70;;
62616;SDS011;62539;51.190;6.808;2023-12-20T12:51:46;3.40;;;1.30;;
62616;SDS011;62539;51.190;6.808;2023-12-20T12:54:12;4.07;;;1.83;;
62616;SDS011;62539;51.190;6.808;2023-12-20T12:56:38;4.75;;;1.75;;
62616;SDS011;62539;51.190;6.808;2023-12-20T12:59:04;5.95;;;1.40;;
62616;SDS011;62539;51.190;6.808;2023-12-20T13:01:31;2.97;;;1.48;;
62616;SDS011;62539;51.190;6.808;2023-12-20T13:03:56;3.60;;;1.42;;
62616;SDS011;62539;51.190;6.808;2023-12-20T13:06:22;2.95;;;1.73;;
62616;SDS011;62539;51.190;6.808;2023-12-20T13:08:47;4.75;;;1.70;;
62616;SDS011;62539;51.190;6.808;2023-12-20T13:11:13;9.43;;;1.88;;
62616;SDS011;62539;51.190;6.808;2023-12-20T13:13:38;7.32;;;1.75;;
62616;SDS011;62539;51.190;6.808;2023-12-20T13:16:04;9.13;;;2.10;;
62616;SDS011;62539;51.190;6.808;2023-12-20T13:18:30;8.82;;;1.90;;
62616;SDS011;62539;51.190;6.808;2023-12-20T13:20:55;5.82;;;1.50;;
62616;SDS011;62539;51.190;6.808;2023-12-20T13:23:20;5.68;;;1.83;;
62616;SDS011;62539;51.190;6.808;2023-12-20T13:25:46;9.90;;;1.85;;
62616;SDS011;62539;51.190;6.808;2023-12-20T13:28:11;8.70;;;1.60;;
62616;SDS011;62539;51.190;6.808;2023-12-20T13:30:37;8.40;;;1.90;;
62616;SDS011;62539;51.190;6.808;2023-12-20T13:33:03;11.13;;;1.77;;
62616;SDS011;62539;51.190;6.808;2023-12-20T13:35:30;4.63;;;1.40;;
62616;SDS011;62539;51.190;6.808;2023-12-20T13:37:56;5.78;;;1.92;;
62616;SDS011;62539;51.190;6.808;2023-12-20T13:40:22;10.80;;;1.88;;
62616;SDS011;62539;51.190;6.808;2023-12-20T13:42:48;8.68;;;1.83;;
62616;SDS011;62539;51.190;6.808;2023-12-20T13:45:13;3.88;;;1.80;;
62616;SDS011;62539;51.190;6.808;2023-12-20T13:47:39;7.15;;;1.45;;
62616;SDS011;62539;51.190;6.808;2023-12-20T13:50:04;6.50;;;2.13;;
62616;SDS011;62539;51.190;6.808;2023-12-20T13:52:30;10.52;;;1.90;;
62616;SDS011;62539;51.190;6.808;2023-12-20T13:54:56;21.88;;;2.05;;
62616;SDS011;62539;51.190;6.808;2023-12-20T13:57:21;18.30;;;1.90;;
62616;SDS011;62539;51.190;6.808;2023-12-20T13:59:47;11.63;;;2.22;;
62616;SDS011;62539;51.190;6.808;2023-12-20T14:02:12;19.73;;;2.13;;
62616;SDS011;62539;51.190;6.808;2023-12-20T14:04:38;15.02;;;2.00;;
62616;SDS011;62539;51.190;6.808;2023-12-20T14:07:04;20.75;;;2.20;;
62616;SDS011;62539;51.190;6.808;2023-12-20T14:09:30;15.90;;;3.00;;
62616;SDS011;62539;51.190;6.808;2023-12-20T14:11:56;15.55;;;2.35;;
62616;SDS011;62539;51.190;6.808;2023-12-20T14:14:21;9.85;;;2.08;;
62616;SDS011;62539;51.190;6.808;2023-12-20T14:16:46;10.63;;;2.00;;
62616;SDS011;62539;51.190;6.808;2023-12-20T14:19:12;17.30;;;2.00;;
62616;SDS011;62539;51.190;6.808;2023-12-20T14:21:37;17.42;;;2.22;;
62616;SDS011;62539;51.190;6.808;2023-12-20T14:24:03;26.35;;;2.38;;
62616;SDS011;62539;51.190;6.808;2023-12-20T14:26:29;17.48;;;1.98;;
62616;SDS011;62539;51.190;6.808;2023-12-20T14:28:56;8.18;;;2.00;;
62616;SDS011;62539;51.190;6.808;2023-12-20T14:31:21;12.93;;;2.25;;
62616;SDS011;62539;51.190;6.808;2023-12-20T14:33:49;11.00;;;1.92;;
62616;SDS011;62539;51.190;6.808;2023-12-20T14:36:16;13.93;;;2.33;;
62616;SDS011;62539;51.190;6.808;2023-12-20T14:38:43;15.73;;;2.10;;
62616;SDS011;62539;51.190;6.808;2023-12-20T14:41:09;17.20;;;2.70;;
62616;SDS011;62539;51.190;6.808;2023-12-20T14:43:34;11.00;;;1.90;;
62616;SDS011;62539;51.190;6.808;2023-12-20T14:46:00;8.43;;;1.98;;